createdAt,value
2022-10-26T00:01:48.174Z,7.50
2022-10-26T00:04:38.474Z,7.13
2022-10-26T00:07:27.346Z,9.53
2022-10-26T00:10:16.327Z,7.67
2022-10-26T00:13:05.415Z,8.00
2022-10-26T00:15:54.277Z,7.33
2022-10-26T00:18:43.698Z,7.03
2022-10-26T00:21:33.883Z,7.67
2022-10-26T00:24:22.808Z,8.60
2022-10-26T00:27:11.635Z,8.13
2022-10-26T00:30:00.469Z,7.83
2022-10-26T00:32:49.321Z,6.80
2022-10-26T00:35:46.344Z,7.13
2022-10-26T00:38:36.677Z,8.03
2022-10-26T00:41:26.369Z,7.80
2022-10-26T00:44:34.551Z,7.70
2022-10-26T00:47:29.602Z,7.83
2022-10-26T00:50:20.557Z,8.20
2022-10-26T00:53:10.045Z,6.60
2022-10-26T00:56:00.229Z,10.43
2022-10-26T00:58:49.535Z,7.93
2022-10-26T01:01:39.702Z,7.70
2022-10-26T01:04:28.701Z,9.13
2022-10-26T01:07:17.800Z,7.23
2022-10-26T01:10:08.053Z,7.60
2022-10-26T01:13:00.242Z,7.57
2022-10-26T01:15:53.202Z,6.73
2022-10-26T01:18:45.669Z,8.30
2022-10-26T01:21:41.364Z,7.10
2022-10-26T01:24:38.775Z,6.37
2022-10-26T01:27:30.470Z,6.57
2022-10-26T01:30:26.117Z,7.23
2022-10-26T01:33:21.344Z,7.37
2022-10-26T01:36:13.253Z,7.63
2022-10-26T01:39:07.030Z,7.90
2022-10-26T01:41:59.932Z,7.00
2022-10-26T01:44:51.189Z,8.43
2022-10-26T01:47:42.479Z,7.87
2022-10-26T01:50:31.857Z,7.30
2022-10-26T01:53:21.231Z,6.83
2022-10-26T01:56:19.145Z,6.00
2022-10-26T01:59:19.198Z,6.57
2022-10-26T02:02:20.770Z,7.07
2022-10-26T02:05:22.532Z,7.87
2022-10-26T02:08:29.447Z,7.70
2022-10-26T02:11:25.101Z,5.90
2022-10-26T02:14:16.519Z,7.03
2022-10-26T02:17:08.595Z,8.30
2022-10-26T02:20:01.181Z,6.07
2022-10-26T02:22:52.130Z,6.50
2022-10-26T02:25:42.282Z,5.50
2022-10-26T02:28:35.107Z,8.23
2022-10-26T02:31:25.211Z,7.13
2022-10-26T02:34:15.539Z,5.73
2022-10-26T02:37:05.283Z,6.97
2022-10-26T02:39:57.238Z,7.70
2022-10-26T02:42:47.444Z,6.60
2022-10-26T02:45:39.123Z,6.67
2022-10-26T02:48:27.981Z,5.23
2022-10-26T02:51:19.770Z,5.37
2022-10-26T02:54:12.409Z,7.03
2022-10-26T02:57:03.768Z,6.10
2022-10-26T02:59:52.630Z,4.70
2022-10-26T03:02:43.552Z,4.80
2022-10-26T03:05:36.771Z,5.07
2022-10-26T03:08:25.800Z,4.90
2022-10-26T03:11:14.682Z,5.40
2022-10-26T03:14:04.928Z,5.50
2022-10-26T03:16:54.201Z,4.97
2022-10-26T03:19:43.005Z,4.90
2022-10-26T03:22:31.837Z,5.13
2022-10-26T03:25:20.653Z,4.70
2022-10-26T03:28:09.496Z,5.80
2022-10-26T03:30:59.826Z,4.23
2022-10-26T03:33:48.844Z,3.87
2022-10-26T03:36:37.680Z,5.30
2022-10-26T03:39:26.525Z,4.13
2022-10-26T03:42:15.317Z,4.60
2022-10-26T03:45:04.164Z,5.13
2022-10-26T03:47:54.378Z,4.20
2022-10-26T03:50:43.197Z,4.17
2022-10-26T03:53:32.009Z,6.33
2022-10-26T03:56:20.953Z,4.40
2022-10-26T03:59:09.768Z,9.23
2022-10-26T04:01:58.983Z,3.73
2022-10-26T04:04:49.218Z,6.70
2022-10-26T04:07:38.026Z,5.93
2022-10-26T04:10:27.585Z,6.00
2022-10-26T04:13:16.433Z,7.03
2022-10-26T04:16:05.422Z,4.50
2022-10-26T04:18:54.243Z,5.03
2022-10-26T04:21:44.404Z,4.50
2022-10-26T04:24:33.535Z,8.23
2022-10-26T04:27:22.306Z,3.93
2022-10-26T04:30:11.513Z,10.60
2022-10-26T04:33:00.334Z,3.70
2022-10-26T04:35:49.166Z,3.73
2022-10-26T04:38:39.365Z,5.03
2022-10-26T04:41:28.189Z,3.70
2022-10-26T04:44:17.145Z,3.50
2022-10-26T04:47:05.976Z,6.10
2022-10-26T04:49:55.125Z,3.90
2022-10-26T04:52:43.940Z,3.80
2022-10-26T04:55:34.161Z,4.67
2022-10-26T04:58:22.970Z,3.93
2022-10-26T05:01:11.885Z,6.37
2022-10-26T05:04:00.795Z,6.60
2022-10-26T05:06:49.605Z,4.80
2022-10-26T05:09:38.447Z,4.70
2022-10-26T05:12:28.613Z,4.40
2022-10-26T05:15:17.554Z,3.90
2022-10-26T05:18:08.945Z,4.90
2022-10-26T05:20:57.763Z,3.97
2022-10-26T05:23:48.890Z,5.03
2022-10-26T05:26:37.681Z,3.47
2022-10-26T05:29:27.838Z,3.77
2022-10-26T05:32:16.628Z,3.83
2022-10-26T05:35:05.648Z,6.00
2022-10-26T05:37:54.802Z,4.20
2022-10-26T05:40:48.931Z,5.03
2022-10-26T05:43:37.781Z,4.40
2022-10-26T05:46:27.932Z,5.77
2022-10-26T05:49:16.757Z,3.90
2022-10-26T05:52:05.777Z,4.57
2022-10-26T05:54:54.612Z,9.33
2022-10-26T05:57:44.110Z,5.90
2022-10-26T06:00:33.332Z,4.83
2022-10-26T06:06:23.838Z,6.83
2022-10-26T06:09:13.189Z,4.23
2022-10-26T06:12:02.563Z,5.60
2022-10-26T06:14:51.663Z,5.80
2022-10-26T06:17:45.452Z,5.30
2022-10-26T06:20:44.556Z,5.07
2022-10-26T06:23:41.707Z,8.97
2022-10-26T06:26:35.429Z,5.00
2022-10-26T06:29:30.101Z,5.07
2022-10-26T06:32:19.277Z,6.77
2022-10-26T06:35:22.399Z,5.13
2022-10-26T06:38:15.057Z,4.67
2022-10-26T06:41:03.965Z,3.93
2022-10-26T06:43:53.481Z,5.33
2022-10-26T06:46:43.586Z,3.70
2022-10-26T06:49:33.827Z,3.80
2022-10-26T06:52:25.073Z,8.70
2022-10-26T06:55:17.206Z,3.27
2022-10-26T06:58:06.430Z,3.97
2022-10-26T07:00:55.865Z,5.10
2022-10-26T07:03:44.727Z,4.40
2022-10-26T07:06:36.792Z,5.47
2022-10-26T07:09:28.382Z,3.87
2022-10-26T07:12:18.547Z,3.80
2022-10-26T07:17:58.240Z,4.00
2022-10-26T07:20:47.079Z,7.23
2022-10-26T07:23:35.872Z,5.73
2022-10-26T07:26:25.636Z,3.73
2022-10-26T07:29:16.569Z,3.43
2022-10-26T07:32:05.579Z,4.33
2022-10-26T07:34:54.403Z,6.50
2022-10-26T07:37:43.208Z,3.03
2022-10-26T07:40:32.190Z,3.10
2022-10-26T07:43:21.180Z,7.63
2022-10-26T07:46:11.382Z,3.17
2022-10-26T07:49:00.235Z,5.00
2022-10-26T07:51:49.061Z,2.07
2022-10-26T07:54:38.089Z,4.60
2022-10-26T07:57:26.906Z,1.87
2022-10-26T08:00:16.700Z,2.47
2022-10-26T08:03:06.894Z,1.83
2022-10-26T08:05:56.030Z,2.90
2022-10-26T08:08:47.641Z,2.47
2022-10-26T08:11:37.049Z,1.67
2022-10-26T08:14:25.875Z,5.90
2022-10-26T08:17:15.061Z,3.93
2022-10-26T08:20:05.499Z,1.90
2022-10-26T08:22:54.305Z,2.73
2022-10-26T08:25:43.220Z,2.23
2022-10-26T08:28:32.244Z,2.50
2022-10-26T08:31:21.139Z,5.80
2022-10-26T08:34:10.320Z,3.60
2022-10-26T08:37:00.444Z,2.30
2022-10-26T08:39:52.122Z,4.15
2022-10-26T08:42:46.054Z,2.55
2022-10-26T08:45:38.403Z,2.20
2022-10-26T08:48:29.210Z,3.78
2022-10-26T08:51:20.194Z,2.53
2022-10-26T08:54:14.453Z,4.15
2022-10-26T08:57:04.539Z,2.95
2022-10-26T08:59:57.969Z,2.85
2022-10-26T09:02:51.132Z,3.05
2022-10-26T09:05:44.958Z,2.78
2022-10-26T09:08:38.106Z,2.88
2022-10-26T09:11:36.629Z,4.65
2022-10-26T09:14:31.156Z,3.28
2022-10-26T09:17:24.637Z,2.22
2022-10-26T09:20:34.584Z,4.88
2022-10-26T09:23:38.334Z,2.70
2022-10-26T09:26:33.991Z,2.75
2022-10-26T09:29:25.255Z,2.58
2022-10-26T09:32:17.937Z,4.25
2022-10-26T09:35:11.437Z,2.08
2022-10-26T09:38:05.882Z,1.70
2022-10-26T09:40:57.678Z,3.50
2022-10-26T09:43:51.036Z,2.22
2022-10-26T09:46:46.441Z,2.50
2022-10-26T09:49:41.242Z,6.45
2022-10-26T09:52:30.101Z,1.50
2022-10-26T09:55:20.763Z,1.38
2022-10-26T09:58:14.713Z,3.47
2022-10-26T10:01:05.025Z,1.63
2022-10-26T10:04:10.297Z,2.05
2022-10-26T10:07:14.118Z,3.10
2022-10-26T10:10:09.029Z,2.05
2022-10-26T10:12:57.881Z,4.60
2022-10-26T10:15:55.424Z,3.67
2022-10-26T10:18:54.055Z,5.07
2022-10-26T10:21:46.413Z,3.55
2022-10-26T10:24:36.896Z,4.38
2022-10-26T10:27:26.247Z,2.97
2022-10-26T10:30:23.489Z,5.10
2022-10-26T10:33:13.048Z,4.40
2022-10-26T10:36:03.914Z,2.67
2022-10-26T10:38:54.097Z,1.80
2022-10-26T10:41:46.752Z,3.33
2022-10-26T10:44:36.106Z,2.53
2022-10-26T10:47:26.050Z,4.63
2022-10-26T10:50:18.896Z,2.53
2022-10-26T10:53:18.289Z,2.65
2022-10-26T10:56:16.340Z,2.15
2022-10-26T10:59:23.094Z,2.78
2022-10-26T11:02:19.527Z,2.38
2022-10-26T11:05:22.016Z,7.55
2022-10-26T11:08:18.098Z,4.07
2022-10-26T11:11:10.504Z,1.60
2022-10-26T11:14:03.502Z,2.70
2022-10-26T11:16:54.901Z,2.30
2022-10-26T11:19:45.612Z,3.30
2022-10-26T11:22:36.908Z,5.57
2022-10-26T11:25:29.125Z,2.80
2022-10-26T11:28:24.783Z,1.73
2022-10-26T11:31:18.210Z,4.38
2022-10-26T11:34:18.378Z,2.83
2022-10-26T11:37:11.849Z,2.90
2022-10-26T11:40:05.359Z,5.32
2022-10-26T11:42:59.702Z,2.78
2022-10-26T11:45:53.118Z,4.85
2022-10-26T11:48:45.012Z,4.50
2022-10-26T11:51:38.754Z,2.30
2022-10-26T11:54:32.760Z,5.53
2022-10-26T11:57:23.123Z,3.28
2022-10-26T12:00:17.110Z,3.28
2022-10-26T12:03:12.194Z,2.90
2022-10-26T12:06:01.595Z,4.88
2022-10-26T12:08:52.898Z,2.13
2022-10-26T12:11:44.146Z,2.45
2022-10-26T12:14:38.721Z,7.03
2022-10-26T12:17:31.980Z,6.35
2022-10-26T12:20:39.790Z,3.13
2022-10-26T12:23:40.531Z,2.80
2022-10-26T12:26:40.947Z,3.78
2022-10-26T12:29:36.580Z,4.57
2022-10-26T12:32:49.936Z,2.30
2022-10-26T12:35:44.313Z,4.85
2022-10-26T12:38:49.266Z,5.70
2022-10-26T12:41:39.913Z,2.28
2022-10-26T12:44:36.371Z,2.20
2022-10-26T12:47:40.175Z,3.90
2022-10-26T12:50:29.503Z,2.38
2022-10-26T12:53:21.800Z,2.78
2022-10-26T12:56:15.391Z,3.50
2022-10-26T12:59:18.590Z,3.22
2022-10-26T13:02:26.018Z,3.95
2022-10-26T13:05:35.954Z,3.05
2022-10-26T13:08:27.053Z,3.25
2022-10-26T13:11:18.360Z,2.00
2022-10-26T13:14:09.152Z,4.82
2022-10-26T13:16:58.033Z,1.90
2022-10-26T13:19:48.363Z,3.55
2022-10-26T13:22:46.969Z,3.17
2022-10-26T13:25:37.299Z,2.58
2022-10-26T13:28:33.921Z,2.97
2022-10-26T13:31:39.603Z,3.47
2022-10-26T13:34:30.429Z,2.83
2022-10-26T13:37:21.519Z,3.40
2022-10-26T13:40:13.900Z,2.72
2022-10-26T13:43:05.262Z,2.22
2022-10-26T13:45:56.493Z,3.40
2022-10-26T13:48:47.602Z,2.97
2022-10-26T13:51:41.145Z,3.50
2022-10-26T13:54:31.889Z,2.55
2022-10-26T13:57:22.735Z,2.78
2022-10-26T14:00:17.729Z,3.97
2022-10-26T14:03:16.417Z,3.42
2022-10-26T14:06:06.561Z,4.05
2022-10-26T14:08:57.021Z,2.08
2022-10-26T14:11:47.014Z,1.48
2022-10-26T14:14:37.761Z,2.72
2022-10-26T14:17:28.086Z,2.55
2022-10-26T14:20:19.354Z,1.90
2022-10-26T14:23:26.500Z,2.00
2022-10-26T14:26:20.978Z,2.97
2022-10-26T14:29:16.210Z,1.08
2022-10-26T14:32:21.272Z,4.57
2022-10-26T14:35:14.693Z,1.27
2022-10-26T14:38:05.010Z,1.50
2022-10-26T14:40:54.290Z,3.90
2022-10-26T14:43:43.890Z,1.73
2022-10-26T14:46:35.541Z,3.10
2022-10-26T14:49:26.401Z,1.75
2022-10-26T14:52:21.839Z,2.60
2022-10-26T14:55:14.631Z,1.20
2022-10-26T14:58:15.124Z,1.70
2022-10-26T15:01:17.228Z,2.20
2022-10-26T15:04:07.345Z,1.67
2022-10-26T15:07:02.694Z,3.87
2022-10-26T15:09:53.466Z,1.60
2022-10-26T15:12:42.284Z,1.53
2022-10-26T15:15:31.142Z,1.40
2022-10-26T15:18:22.011Z,2.10
2022-10-26T15:21:20.098Z,3.33
2022-10-26T15:24:16.292Z,1.87
2022-10-26T15:27:07.015Z,2.63
2022-10-26T15:30:10.430Z,2.83
2022-10-26T15:33:13.709Z,1.67
2022-10-26T15:36:16.347Z,1.63
2022-10-26T15:39:05.297Z,1.83
2022-10-26T15:41:54.310Z,1.93
2022-10-26T15:44:44.861Z,2.03
2022-10-26T15:47:35.389Z,3.73
2022-10-26T15:50:24.884Z,1.90
2022-10-26T15:53:18.043Z,3.10
2022-10-26T15:56:10.604Z,1.33
2022-10-26T15:58:59.713Z,2.60
2022-10-26T16:01:52.041Z,1.50
2022-10-26T16:04:41.015Z,2.13
2022-10-26T16:07:29.826Z,5.00
2022-10-26T16:10:20.593Z,2.47
2022-10-26T16:13:13.676Z,1.87
2022-10-26T16:16:02.931Z,2.97
2022-10-26T16:19:11.748Z,2.90
2022-10-26T16:22:04.456Z,1.60
2022-10-26T16:24:53.573Z,3.17
2022-10-26T16:27:42.410Z,1.63
2022-10-26T16:30:31.856Z,1.50
2022-10-26T16:33:20.697Z,2.37
2022-10-26T16:36:11.945Z,3.23
2022-10-26T16:41:54.529Z,1.87
2022-10-26T16:44:43.394Z,2.43
2022-10-26T16:47:36.877Z,3.27
2022-10-26T16:50:25.916Z,2.80
2022-10-26T16:53:16.171Z,2.70
2022-10-26T16:56:05.413Z,1.70
2022-10-26T16:58:54.571Z,3.70
2022-10-26T17:01:43.561Z,5.27
2022-10-26T17:04:32.602Z,2.43
2022-10-26T17:07:21.423Z,2.37
2022-10-26T17:10:12.069Z,2.60
2022-10-26T17:13:01.292Z,3.10
2022-10-26T17:15:50.441Z,2.17
2022-10-26T17:18:40.370Z,6.03
2022-10-26T17:21:30.321Z,3.63
2022-10-26T17:24:19.190Z,4.87
2022-10-26T17:27:09.394Z,2.53
2022-10-26T17:29:58.274Z,2.10
2022-10-26T17:32:47.129Z,3.80
2022-10-26T17:35:36.049Z,3.90
2022-10-26T17:38:24.910Z,3.80
2022-10-26T17:41:15.089Z,3.07
2022-10-26T17:44:05.297Z,5.57
2022-10-26T17:46:54.100Z,5.73
2022-10-26T17:49:43.171Z,2.97
2022-10-26T17:52:32.267Z,2.87
2022-10-26T17:55:21.097Z,5.30
2022-10-26T17:58:09.953Z,1.87
2022-10-26T18:01:03.511Z,2.23
2022-10-26T18:03:52.513Z,1.97
2022-10-26T18:06:41.330Z,2.17
2022-10-26T18:09:30.208Z,3.20
2022-10-26T18:12:19.013Z,2.50
2022-10-26T18:15:08.205Z,2.90
2022-10-26T18:18:00.640Z,1.47
2022-10-26T18:20:49.744Z,1.90
2022-10-26T18:23:38.562Z,1.97
2022-10-26T18:26:28.685Z,5.17
2022-10-26T18:29:17.586Z,4.50
2022-10-26T18:32:06.615Z,2.90
2022-10-26T18:34:56.782Z,5.33
2022-10-26T18:37:45.819Z,2.57
2022-10-26T18:40:34.651Z,1.70
2022-10-26T18:43:23.465Z,1.90
2022-10-26T18:46:16.254Z,4.00
2022-10-26T18:49:08.051Z,4.30
2022-10-26T18:51:58.252Z,2.40
2022-10-26T18:54:47.092Z,2.40
2022-10-26T18:57:36.266Z,4.17
2022-10-26T19:00:25.084Z,2.57
2022-10-26T19:03:13.903Z,2.60
2022-10-26T19:06:09.188Z,3.47
2022-10-26T19:08:59.445Z,5.27
2022-10-26T19:11:48.302Z,4.23
2022-10-26T19:14:37.187Z,3.03
2022-10-26T19:17:26.009Z,3.40
2022-10-26T19:20:14.862Z,4.83
2022-10-26T19:23:03.663Z,5.57
2022-10-26T19:25:57.117Z,7.67
2022-10-26T19:28:46.068Z,7.97
2022-10-26T19:31:35.680Z,8.53
2022-10-26T19:34:24.519Z,8.40
2022-10-26T19:37:13.411Z,10.80
2022-10-26T19:40:02.230Z,14.27
2022-10-26T19:42:52.578Z,7.40
2022-10-26T19:45:41.740Z,7.67
2022-10-26T19:48:30.543Z,6.47
2022-10-26T19:51:19.620Z,6.17
2022-10-26T19:54:08.584Z,6.50
2022-10-26T19:56:57.408Z,4.53
2022-10-26T19:59:47.592Z,8.43
2022-10-26T20:02:36.561Z,7.70
2022-10-26T20:05:25.395Z,10.73
2022-10-26T20:08:14.216Z,11.13
2022-10-26T20:11:03.382Z,6.33
2022-10-26T20:13:52.645Z,5.70
2022-10-26T20:16:42.859Z,5.10
2022-10-26T20:19:31.693Z,8.60
2022-10-26T20:22:20.512Z,4.23
2022-10-26T20:25:09.663Z,5.63
2022-10-26T20:27:58.465Z,5.77
2022-10-26T20:30:49.568Z,4.77
2022-10-26T20:33:39.742Z,7.20
2022-10-26T20:36:28.579Z,8.73
2022-10-26T20:39:17.811Z,5.10
2022-10-26T20:42:07.033Z,4.73
2022-10-26T20:45:02.032Z,4.60
2022-10-26T20:47:51.480Z,5.07
2022-10-26T20:50:42.388Z,6.10
2022-10-26T20:53:34.102Z,5.77
2022-10-26T20:56:24.610Z,9.57
2022-10-26T20:59:20.279Z,6.57
2022-10-26T21:02:10.514Z,6.83
2022-10-26T21:04:59.378Z,5.37
2022-10-26T21:07:49.707Z,5.33
2022-10-26T21:10:38.557Z,6.03
2022-10-26T21:13:27.345Z,5.17
2022-10-26T21:16:16.566Z,5.20
2022-10-26T21:19:07.277Z,6.03
2022-10-26T21:21:56.092Z,6.30
2022-10-26T21:24:46.251Z,4.70
2022-10-26T21:27:35.083Z,4.70
2022-10-26T21:30:23.970Z,6.20
2022-10-26T21:33:12.823Z,5.43
2022-10-26T21:36:01.808Z,4.87
2022-10-26T21:38:50.648Z,6.23
2022-10-26T21:41:40.840Z,6.63
2022-10-26T21:44:45.081Z,4.53
2022-10-26T21:47:33.951Z,5.10
2022-10-26T21:50:22.766Z,4.67
2022-10-26T21:53:11.586Z,6.17
2022-10-26T21:56:01.498Z,4.83
2022-10-26T21:58:51.945Z,5.67
2022-10-26T22:01:44.405Z,7.97
2022-10-26T22:04:33.449Z,7.03
2022-10-26T22:07:22.254Z,7.30
2022-10-26T22:10:11.551Z,5.97
2022-10-26T22:13:00.571Z,5.50
2022-10-26T22:15:50.735Z,5.40
2022-10-26T22:18:40.074Z,5.50
2022-10-26T22:21:29.143Z,6.80
2022-10-26T22:24:18.014Z,7.27
2022-10-26T22:27:06.866Z,7.50
2022-10-26T22:29:55.684Z,4.63
2022-10-26T22:32:45.883Z,5.00
2022-10-26T22:35:34.740Z,6.03
2022-10-26T22:38:23.559Z,7.53
2022-10-26T22:41:12.669Z,8.43
2022-10-26T22:44:01.461Z,8.30
2022-10-26T22:46:50.307Z,8.13
2022-10-26T22:49:40.465Z,6.10
2022-10-26T22:52:29.320Z,5.57
2022-10-26T22:55:18.150Z,5.17
2022-10-26T22:58:07.041Z,7.00
2022-10-26T23:01:02.770Z,5.23
2022-10-26T23:03:51.928Z,6.33
2022-10-26T23:06:42.301Z,4.83
2022-10-26T23:09:31.115Z,5.33
2022-10-26T23:12:20.118Z,6.93
2022-10-26T23:15:09.475Z,5.80
2022-10-26T23:17:58.654Z,8.60
2022-10-26T23:20:50.028Z,4.63
2022-10-26T23:23:40.749Z,5.60
2022-10-26T23:26:29.674Z,5.20
2022-10-26T23:29:18.538Z,5.13
2022-10-26T23:32:07.562Z,6.37
2022-10-26T23:34:56.451Z,8.17
2022-10-26T23:37:45.273Z,5.43
2022-10-26T23:40:35.891Z,5.50
2022-10-26T23:43:24.972Z,6.33
2022-10-26T23:46:14.024Z,7.63
2022-10-26T23:49:03.016Z,5.60
2022-10-26T23:51:51.946Z,5.67
2022-10-26T23:54:40.812Z,5.40
2022-10-26T23:57:31.037Z,6.20
